Floresta da Tijuca, Brazil
Current Conditions -  °F | °C
As of 7:00 PM on Friday 19 Dec 2014 (Local Time) from SBRJ Reporting Station
Broken Clouds Broken Clouds  
Wind Chill: 79°   Ceiling: 10000
Heat Index: 82°   Visibility: 6mi
Dew Point: 72°   Wind: 10mph
Humidity: 78%   Direction: 180°S
Pressure: 29.77"   Gusts: NA
Location:  22.9°S, 43.21°W
Report Text: SBRJ 192100Z 18009KT 9999 FEW009 FEW030TCU BKN100 26/22 Q1008
Loading
Personal Weather Stations






























Interactive Weather Map New forecast layout! Learn more

10-Day Weather Forecast

Advertisements
Track Severe Weather on mobile